sensor_id;sensor_type;location;lat;lon;timestamp;P1;durP1;ratioP1;P2;durP2;ratioP2
22164;SDS011;11248;52.512;13.520;2022-08-11T00:00:51;2.00;;;1.30;;
22164;SDS011;11248;52.512;13.520;2022-08-11T00:03:17;3.22;;;1.20;;
22164;SDS011;11248;52.512;13.520;2022-08-11T00:05:54;3.90;;;1.20;;
22164;SDS011;11248;52.512;13.520;2022-08-11T00:08:21;2.72;;;1.42;;
22164;SDS011;11248;52.512;13.520;2022-08-11T00:10:52;2.70;;;1.40;;
22164;SDS011;11248;52.512;13.520;2022-08-11T00:13:19;1.67;;;1.30;;
22164;SDS011;11248;52.512;13.520;2022-08-11T00:15:45;2.22;;;1.50;;
22164;SDS011;11248;52.512;13.520;2022-08-11T00:18:11;2.55;;;1.50;;
22164;SDS011;11248;52.512;13.520;2022-08-11T00:20:39;3.67;;;1.30;;
22164;SDS011;11248;52.512;13.520;2022-08-11T00:23:13;1.63;;;1.38;;
22164;SDS011;11248;52.512;13.520;2022-08-11T00:25:41;1.15;;;1.05;;
22164;SDS011;11248;52.512;13.520;2022-08-11T00:28:27;2.55;;;1.25;;
22164;SDS011;11248;52.512;13.520;2022-08-11T00:30:55;2.35;;;1.48;;
22164;SDS011;11248;52.512;13.520;2022-08-11T00:33:22;1.58;;;1.30;;
22164;SDS011;11248;52.512;13.520;2022-08-11T00:35:49;2.42;;;1.30;;
22164;SDS011;11248;52.512;13.520;2022-08-11T00:38:16;2.28;;;1.30;;
22164;SDS011;11248;52.512;13.520;2022-08-11T00:40:44;1.70;;;1.40;;
22164;SDS011;11248;52.512;13.520;2022-08-11T00:43:21;1.57;;;1.47;;
22164;SDS011;11248;52.512;13.520;2022-08-11T00:48:27;2.42;;;1.30;;
22164;SDS011;11248;52.512;13.520;2022-08-11T00:53:44;2.00;;;1.30;;
22164;SDS011;11248;52.512;13.520;2022-08-11T01:04:19;1.70;;;1.52;;
22164;SDS011;11248;52.512;13.520;2022-08-11T01:06:54;3.83;;;1.40;;
22164;SDS011;11248;52.512;13.520;2022-08-11T01:09:30;3.05;;;1.35;;
22164;SDS011;11248;52.512;13.520;2022-08-11T01:12:14;1.50;;;1.33;;
22164;SDS011;11248;52.512;13.520;2022-08-11T01:15:13;2.42;;;1.50;;
22164;SDS011;11248;52.512;13.520;2022-08-11T01:20:35;2.28;;;1.60;;
22164;SDS011;11248;52.512;13.520;2022-08-11T01:25:43;1.58;;;1.48;;
22164;SDS011;11248;52.512;13.520;2022-08-11T01:28:30;1.30;;;1.20;;
22164;SDS011;11248;52.512;13.520;2022-08-11T01:36:46;1.73;;;1.35;;
22164;SDS011;11248;52.512;13.520;2022-08-11T01:45:10;2.33;;;1.60;;
22164;SDS011;11248;52.512;13.520;2022-08-11T01:47:44;3.17;;;1.40;;
22164;SDS011;11248;52.512;13.520;2022-08-11T01:58:12;2.50;;;1.55;;
22164;SDS011;11248;52.512;13.520;2022-08-11T02:00:47;1.55;;;1.42;;
22164;SDS011;11248;52.512;13.520;2022-08-11T02:03:22;3.10;;;1.52;;
22164;SDS011;11248;52.512;13.520;2022-08-11T02:05:59;1.80;;;1.50;;
22164;SDS011;11248;52.512;13.520;2022-08-11T02:10:57;3.53;;;1.80;;
22164;SDS011;11248;52.512;13.520;2022-08-11T02:13:46;2.67;;;1.40;;
22164;SDS011;11248;52.512;13.520;2022-08-11T02:16:20;1.50;;;1.40;;
22164;SDS011;11248;52.512;13.520;2022-08-11T02:18:49;3.30;;;1.83;;
22164;SDS011;11248;52.512;13.520;2022-08-11T02:21:37;2.15;;;1.88;;
22164;SDS011;11248;52.512;13.520;2022-08-11T02:24:27;2.60;;;1.80;;
22164;SDS011;11248;52.512;13.520;2022-08-11T02:27:06;2.40;;;1.60;;
22164;SDS011;11248;52.512;13.520;2022-08-11T02:29:45;3.55;;;1.60;;
22164;SDS011;11248;52.512;13.520;2022-08-11T02:32:23;2.95;;;1.75;;
22164;SDS011;11248;52.512;13.520;2022-08-11T02:35:17;3.45;;;1.60;;
22164;SDS011;11248;52.512;13.520;2022-08-11T02:37:59;2.40;;;1.60;;
22164;SDS011;11248;52.512;13.520;2022-08-11T02:40:31;2.03;;;1.83;;
22164;SDS011;11248;52.512;13.520;2022-08-11T02:48:45;2.63;;;1.67;;
22164;SDS011;11248;52.512;13.520;2022-08-11T02:54:14;2.50;;;1.73;;
22164;SDS011;11248;52.512;13.520;2022-08-11T02:56:47;2.15;;;1.50;;
22164;SDS011;11248;52.512;13.520;2022-08-11T02:59:36;2.33;;;1.70;;
22164;SDS011;11248;52.512;13.520;2022-08-11T03:02:18;3.85;;;1.80;;
22164;SDS011;11248;52.512;13.520;2022-08-11T03:10:19;3.30;;;2.08;;
22164;SDS011;11248;52.512;13.520;2022-08-11T03:12:49;3.90;;;1.73;;
22164;SDS011;11248;52.512;13.520;2022-08-11T03:15:44;2.97;;;1.92;;
22164;SDS011;11248;52.512;13.520;2022-08-11T03:21:11;3.42;;;2.10;;
22164;SDS011;11248;52.512;13.520;2022-08-11T03:23:48;3.00;;;1.80;;
22164;SDS011;11248;52.512;13.520;2022-08-11T03:26:29;3.78;;;1.88;;
22164;SDS011;11248;52.512;13.520;2022-08-11T03:29:03;3.90;;;2.00;;
22164;SDS011;11248;52.512;13.520;2022-08-11T03:34:08;3.42;;;2.25;;
22164;SDS011;11248;52.512;13.520;2022-08-11T03:36:54;2.38;;;1.95;;
22164;SDS011;11248;52.512;13.520;2022-08-11T03:47:44;3.13;;;1.90;;
22164;SDS011;11248;52.512;13.520;2022-08-11T03:58:27;2.88;;;1.77;;
22164;SDS011;11248;52.512;13.520;2022-08-11T04:01:20;2.17;;;1.85;;
22164;SDS011;11248;52.512;13.520;2022-08-11T04:06:30;3.22;;;2.08;;
22164;SDS011;11248;52.512;13.520;2022-08-11T04:16:33;3.20;;;2.13;;
22164;SDS011;11248;52.512;13.520;2022-08-11T04:19:21;3.67;;;2.15;;
22164;SDS011;11248;52.512;13.520;2022-08-11T04:22:15;2.75;;;1.88;;
22164;SDS011;11248;52.512;13.520;2022-08-11T04:24:57;2.40;;;1.92;;
22164;SDS011;11248;52.512;13.520;2022-08-11T04:30:22;3.58;;;2.28;;
22164;SDS011;11248;52.512;13.520;2022-08-11T04:35:21;4.57;;;2.20;;
22164;SDS011;11248;52.512;13.520;2022-08-11T04:40:39;2.45;;;2.13;;
22164;SDS011;11248;52.512;13.520;2022-08-11T04:48:47;4.18;;;2.85;;
22164;SDS011;11248;52.512;13.520;2022-08-11T04:57:46;3.58;;;2.55;;
22164;SDS011;11248;52.512;13.520;2022-08-11T05:00:42;4.07;;;2.67;;
22164;SDS011;11248;52.512;13.520;2022-08-11T05:03:45;3.15;;;2.30;;
22164;SDS011;11248;52.512;13.520;2022-08-11T05:06:20;3.55;;;2.72;;
22164;SDS011;11248;52.512;13.520;2022-08-11T05:11:33;2.47;;;2.20;;
22164;SDS011;11248;52.512;13.520;2022-08-11T05:16:55;2.58;;;2.15;;
22164;SDS011;11248;52.512;13.520;2022-08-11T05:19:44;3.30;;;2.67;;
22164;SDS011;11248;52.512;13.520;2022-08-11T05:22:30;3.75;;;2.28;;
22164;SDS011;11248;52.512;13.520;2022-08-11T05:25:24;3.08;;;2.20;;
22164;SDS011;11248;52.512;13.520;2022-08-11T05:28:12;5.40;;;2.60;;
22164;SDS011;11248;52.512;13.520;2022-08-11T05:30:59;4.15;;;2.55;;
22164;SDS011;11248;52.512;13.520;2022-08-11T05:33:48;4.32;;;3.00;;
22164;SDS011;11248;52.512;13.520;2022-08-11T05:36:36;4.00;;;2.80;;
22164;SDS011;11248;52.512;13.520;2022-08-11T05:39:07;3.88;;;2.50;;
22164;SDS011;11248;52.512;13.520;2022-08-11T05:41:57;4.10;;;2.58;;
22164;SDS011;11248;52.512;13.520;2022-08-11T05:44:43;2.90;;;2.55;;
22164;SDS011;11248;52.512;13.520;2022-08-11T05:47:29;4.05;;;2.72;;
22164;SDS011;11248;52.512;13.520;2022-08-11T05:50:14;5.53;;;3.05;;
22164;SDS011;11248;52.512;13.520;2022-08-11T05:53:00;4.15;;;2.88;;
22164;SDS011;11248;52.512;13.520;2022-08-11T05:55:45;4.53;;;3.28;;
22164;SDS011;11248;52.512;13.520;2022-08-11T06:00:56;6.65;;;2.92;;
22164;SDS011;11248;52.512;13.520;2022-08-11T06:03:24;5.20;;;2.75;;
22164;SDS011;11248;52.512;13.520;2022-08-11T06:05:51;4.60;;;2.65;;
22164;SDS011;11248;52.512;13.520;2022-08-11T06:08:18;4.85;;;2.70;;
22164;SDS011;11248;52.512;13.520;2022-08-11T06:10:52;6.78;;;3.55;;
22164;SDS011;11248;52.512;13.520;2022-08-11T06:13:24;4.85;;;3.10;;
22164;SDS011;11248;52.512;13.520;2022-08-11T06:15:50;3.40;;;3.00;;
22164;SDS011;11248;52.512;13.520;2022-08-11T06:18:16;5.60;;;2.85;;
22164;SDS011;11248;52.512;13.520;2022-08-11T06:20:47;3.83;;;2.92;;
22164;SDS011;11248;52.512;13.520;2022-08-11T06:23:13;3.38;;;2.65;;
22164;SDS011;11248;52.512;13.520;2022-08-11T06:25:42;4.40;;;3.05;;
22164;SDS011;11248;52.512;13.520;2022-08-11T06:28:09;4.63;;;2.90;;
22164;SDS011;11248;52.512;13.520;2022-08-11T06:30:38;3.03;;;2.72;;
22164;SDS011;11248;52.512;13.520;2022-08-11T06:33:14;5.05;;;3.22;;
22164;SDS011;11248;52.512;13.520;2022-08-11T06:35:59;3.55;;;3.10;;
22164;SDS011;11248;52.512;13.520;2022-08-11T06:38:48;3.03;;;2.72;;
22164;SDS011;11248;52.512;13.520;2022-08-11T06:41:18;5.13;;;3.33;;
22164;SDS011;11248;52.512;13.520;2022-08-11T06:44:08;3.60;;;2.70;;
22164;SDS011;11248;52.512;13.520;2022-08-11T06:46:41;6.97;;;3.13;;
22164;SDS011;11248;52.512;13.520;2022-08-11T06:49:07;3.30;;;3.00;;
22164;SDS011;11248;52.512;13.520;2022-08-11T06:51:58;4.05;;;3.05;;
22164;SDS011;11248;52.512;13.520;2022-08-11T06:54:25;5.80;;;2.90;;
22164;SDS011;11248;52.512;13.520;2022-08-11T06:56:51;4.65;;;3.20;;
22164;SDS011;11248;52.512;13.520;2022-08-11T06:59:37;3.40;;;3.00;;
22164;SDS011;11248;52.512;13.520;2022-08-11T07:05:07;3.90;;;3.03;;
22164;SDS011;11248;52.512;13.520;2022-08-11T07:10:41;3.65;;;2.63;;
22164;SDS011;11248;52.512;13.520;2022-08-11T07:13:32;3.00;;;2.70;;
22164;SDS011;11248;52.512;13.520;2022-08-11T07:16:20;3.88;;;2.75;;
22164;SDS011;11248;52.512;13.520;2022-08-11T07:18:47;4.45;;;2.50;;
22164;SDS011;11248;52.512;13.520;2022-08-11T07:24:24;4.57;;;2.80;;
22164;SDS011;11248;52.512;13.520;2022-08-11T07:27:13;3.58;;;2.50;;
22164;SDS011;11248;52.512;13.520;2022-08-11T07:30:00;3.58;;;2.72;;
22164;SDS011;11248;52.512;13.520;2022-08-11T07:32:28;5.75;;;2.80;;
22164;SDS011;11248;52.512;13.520;2022-08-11T07:35:16;3.67;;;2.85;;
22164;SDS011;11248;52.512;13.520;2022-08-11T07:37:46;3.70;;;2.40;;
22164;SDS011;11248;52.512;13.520;2022-08-11T07:40:15;3.20;;;2.90;;
22164;SDS011;11248;52.512;13.520;2022-08-11T07:42:44;3.08;;;2.47;;
22164;SDS011;11248;52.512;13.520;2022-08-11T07:45:10;7.43;;;2.60;;
22164;SDS011;11248;52.512;13.520;2022-08-11T07:47:55;5.05;;;2.35;;
22164;SDS011;11248;52.512;13.520;2022-08-11T07:50:41;2.72;;;2.33;;
22164;SDS011;11248;52.512;13.520;2022-08-11T07:53:26;6.45;;;2.30;;
22164;SDS011;11248;52.512;13.520;2022-08-11T07:55:54;2.80;;;1.98;;
22164;SDS011;11248;52.512;13.520;2022-08-11T07:58:21;4.93;;;2.45;;
22164;SDS011;11248;52.512;13.520;2022-08-11T08:01:06;5.13;;;2.53;;
22164;SDS011;11248;52.512;13.520;2022-08-11T08:03:51;2.78;;;2.47;;
22164;SDS011;11248;52.512;13.520;2022-08-11T08:06:36;2.88;;;2.33;;
22164;SDS011;11248;52.512;13.520;2022-08-11T08:09:22;3.40;;;2.25;;
22164;SDS011;11248;52.512;13.520;2022-08-11T08:12:07;4.32;;;2.35;;
22164;SDS011;11248;52.512;13.520;2022-08-11T08:14:53;3.95;;;2.30;;
22164;SDS011;11248;52.512;13.520;2022-08-11T08:17:39;3.40;;;2.30;;
22164;SDS011;11248;52.512;13.520;2022-08-11T08:20:22;3.45;;;2.15;;
22164;SDS011;11248;52.512;13.520;2022-08-11T08:22:58;3.47;;;2.22;;
22164;SDS011;11248;52.512;13.520;2022-08-11T08:25:26;3.53;;;2.30;;
22164;SDS011;11248;52.512;13.520;2022-08-11T08:27:53;3.83;;;2.47;;
22164;SDS011;11248;52.512;13.520;2022-08-11T08:30:20;3.65;;;1.80;;
22164;SDS011;11248;52.512;13.520;2022-08-11T08:33:04;3.70;;;2.20;;
22164;SDS011;11248;52.512;13.520;2022-08-11T08:35:30;2.90;;;1.90;;
22164;SDS011;11248;52.512;13.520;2022-08-11T08:37:56;2.90;;;2.05;;
22164;SDS011;11248;52.512;13.520;2022-08-11T08:40:24;2.20;;;2.00;;
22164;SDS011;11248;52.512;13.520;2022-08-11T08:42:54;2.13;;;1.65;;
22164;SDS011;11248;52.512;13.520;2022-08-11T08:45:21;3.03;;;1.80;;
22164;SDS011;11248;52.512;13.520;2022-08-11T08:47:50;2.92;;;2.25;;
22164;SDS011;11248;52.512;13.520;2022-08-11T08:50:17;5.22;;;2.42;;
22164;SDS011;11248;52.512;13.520;2022-08-11T08:52:53;3.85;;;2.13;;
22164;SDS011;11248;52.512;13.520;2022-08-11T08:55:20;4.05;;;1.90;;
22164;SDS011;11248;52.512;13.520;2022-08-11T08:57:47;2.72;;;1.88;;
22164;SDS011;11248;52.512;13.520;2022-08-11T09:00:14;2.15;;;1.95;;
22164;SDS011;11248;52.512;13.520;2022-08-11T09:02:40;3.03;;;1.75;;
22164;SDS011;11248;52.512;13.520;2022-08-11T09:05:07;1.90;;;1.70;;
22164;SDS011;11248;52.512;13.520;2022-08-11T09:07:34;2.17;;;1.98;;
22164;SDS011;11248;52.512;13.520;2022-08-11T09:10:00;2.38;;;1.90;;
22164;SDS011;11248;52.512;13.520;2022-08-11T09:12:27;2.38;;;1.85;;
22164;SDS011;11248;52.512;13.520;2022-08-11T09:14:53;2.55;;;1.98;;
22164;SDS011;11248;52.512;13.520;2022-08-11T09:17:38;2.85;;;1.80;;
22164;SDS011;11248;52.512;13.520;2022-08-11T09:20:11;2.42;;;1.95;;
22164;SDS011;11248;52.512;13.520;2022-08-11T09:22:40;2.00;;;1.80;;
22164;SDS011;11248;52.512;13.520;2022-08-11T09:25:25;2.05;;;1.50;;
22164;SDS011;11248;52.512;13.520;2022-08-11T09:28:10;3.85;;;2.10;;
22164;SDS011;11248;52.512;13.520;2022-08-11T09:30:39;2.67;;;1.92;;
22164;SDS011;11248;52.512;13.520;2022-08-11T09:33:05;2.53;;;1.80;;
22164;SDS011;11248;52.512;13.520;2022-08-11T09:35:35;3.67;;;2.10;;
22164;SDS011;11248;52.512;13.520;2022-08-11T09:38:03;2.70;;;1.98;;
22164;SDS011;11248;52.512;13.520;2022-08-11T09:40:48;4.80;;;2.00;;
22164;SDS011;11248;52.512;13.520;2022-08-11T09:43:16;2.63;;;1.95;;
22164;SDS011;11248;52.512;13.520;2022-08-11T09:46:01;3.15;;;2.00;;
22164;SDS011;11248;52.512;13.520;2022-08-11T09:48:29;2.05;;;1.83;;
22164;SDS011;11248;52.512;13.520;2022-08-11T09:50:56;2.88;;;1.95;;
22164;SDS011;11248;52.512;13.520;2022-08-11T09:53:24;3.53;;;2.00;;
22164;SDS011;11248;52.512;13.520;2022-08-11T09:55:51;2.95;;;1.70;;
22164;SDS011;11248;52.512;13.520;2022-08-11T09:58:17;2.72;;;1.95;;
22164;SDS011;11248;52.512;13.520;2022-08-11T10:00:44;2.63;;;1.75;;
22164;SDS011;11248;52.512;13.520;2022-08-11T10:03:16;3.40;;;1.92;;
22164;SDS011;11248;52.512;13.520;2022-08-11T10:05:43;4.47;;;1.95;;
22164;SDS011;11248;52.512;13.520;2022-08-11T10:08:29;2.10;;;1.90;;
22164;SDS011;11248;52.512;13.520;2022-08-11T10:10:57;3.13;;;1.90;;
22164;SDS011;11248;52.512;13.520;2022-08-11T10:13:25;4.93;;;1.92;;
22164;SDS011;11248;52.512;13.520;2022-08-11T10:15:54;2.70;;;1.60;;
22164;SDS011;11248;52.512;13.520;2022-08-11T10:18:34;4.93;;;2.20;;
22164;SDS011;11248;52.512;13.520;2022-08-11T10:21:22;3.75;;;2.22;;
22164;SDS011;11248;52.512;13.520;2022-08-11T10:23:52;2.47;;;1.60;;
22164;SDS011;11248;52.512;13.520;2022-08-11T10:26:37;2.65;;;2.00;;
22164;SDS011;11248;52.512;13.520;2022-08-11T10:32:08;2.55;;;1.73;;
22164;SDS011;11248;52.512;13.520;2022-08-11T10:34:54;3.03;;;1.92;;
22164;SDS011;11248;52.512;13.520;2022-08-11T10:37:20;2.05;;;1.63;;
22164;SDS011;11248;52.512;13.520;2022-08-11T10:39:48;4.07;;;2.20;;
22164;SDS011;11248;52.512;13.520;2022-08-11T10:42:14;2.83;;;2.08;;
22164;SDS011;11248;52.512;13.520;2022-08-11T10:45:00;2.53;;;1.80;;
22164;SDS011;11248;52.512;13.520;2022-08-11T10:47:28;2.53;;;1.88;;
22164;SDS011;11248;52.512;13.520;2022-08-11T10:50:09;4.38;;;1.90;;
22164;SDS011;11248;52.512;13.520;2022-08-11T10:52:56;2.30;;;1.88;;
22164;SDS011;11248;52.512;13.520;2022-08-11T10:55:42;5.00;;;2.03;;
22164;SDS011;11248;52.512;13.520;2022-08-11T10:58:27;3.30;;;2.00;;
22164;SDS011;11248;52.512;13.520;2022-08-11T11:01:12;2.20;;;1.90;;
22164;SDS011;11248;52.512;13.520;2022-08-11T11:03:38;3.17;;;1.70;;
22164;SDS011;11248;52.512;13.520;2022-08-11T11:08:56;3.78;;;2.08;;
22164;SDS011;11248;52.512;13.520;2022-08-11T11:11:24;4.78;;;2.08;;
22164;SDS011;11248;52.512;13.520;2022-08-11T11:14:09;1.88;;;1.65;;
22164;SDS011;11248;52.512;13.520;2022-08-11T11:16:56;2.90;;;1.70;;
22164;SDS011;11248;52.512;13.520;2022-08-11T11:19:41;2.88;;;1.60;;
22164;SDS011;11248;52.512;13.520;2022-08-11T11:22:08;3.05;;;1.80;;
22164;SDS011;11248;52.512;13.520;2022-08-11T11:24:56;2.83;;;1.60;;
22164;SDS011;11248;52.512;13.520;2022-08-11T11:27:31;4.13;;;1.98;;
22164;SDS011;11248;52.512;13.520;2022-08-11T11:30:02;2.63;;;1.55;;
22164;SDS011;11248;52.512;13.520;2022-08-11T11:37:44;1.77;;;1.33;;
22164;SDS011;11248;52.512;13.520;2022-08-11T11:40:11;2.10;;;1.50;;
22164;SDS011;11248;52.512;13.520;2022-08-11T11:42:41;2.00;;;1.60;;
22164;SDS011;11248;52.512;13.520;2022-08-11T11:45:07;3.17;;;1.27;;
22164;SDS011;11248;52.512;13.520;2022-08-11T11:47:34;1.77;;;1.67;;
22164;SDS011;11248;52.512;13.520;2022-08-11T11:50:01;3.22;;;1.35;;
22164;SDS011;11248;52.512;13.520;2022-08-11T11:52:27;2.63;;;1.52;;
22164;SDS011;11248;52.512;13.520;2022-08-11T11:54:54;2.35;;;1.67;;
22164;SDS011;11248;52.512;13.520;2022-08-11T11:57:20;2.22;;;1.65;;
22164;SDS011;11248;52.512;13.520;2022-08-11T12:00:06;1.95;;;1.50;;
22164;SDS011;11248;52.512;13.520;2022-08-11T12:02:51;1.58;;;1.40;;
22164;SDS011;11248;52.512;13.520;2022-08-11T12:05:17;2.75;;;1.88;;
22164;SDS011;11248;52.512;13.520;2022-08-11T12:07:43;3.03;;;1.75;;
22164;SDS011;11248;52.512;13.520;2022-08-11T12:10:28;2.28;;;1.77;;
22164;SDS011;11248;52.512;13.520;2022-08-11T12:12:55;3.10;;;1.45;;
22164;SDS011;11248;52.512;13.520;2022-08-11T12:15:39;3.30;;;1.40;;
22164;SDS011;11248;52.512;13.520;2022-08-11T12:18:05;1.67;;;1.58;;
22164;SDS011;11248;52.512;13.520;2022-08-11T12:20:31;1.92;;;1.48;;
22164;SDS011;11248;52.512;13.520;2022-08-11T12:22:58;2.35;;;1.52;;
22164;SDS011;11248;52.512;13.520;2022-08-11T12:25:43;1.70;;;1.60;;
22164;SDS011;11248;52.512;13.520;2022-08-11T12:28:28;3.22;;;1.63;;
22164;SDS011;11248;52.512;13.520;2022-08-11T12:30:54;1.85;;;1.40;;
22164;SDS011;11248;52.512;13.520;2022-08-11T12:33:21;2.58;;;1.70;;
22164;SDS011;11248;52.512;13.520;2022-08-11T12:35:47;1.85;;;1.50;;
22164;SDS011;11248;52.512;13.520;2022-08-11T12:38:17;1.88;;;1.50;;
22164;SDS011;11248;52.512;13.520;2022-08-11T12:40:45;5.20;;;1.92;;
22164;SDS011;11248;52.512;13.520;2022-08-11T12:43:31;4.10;;;1.63;;
22164;SDS011;11248;52.512;13.520;2022-08-11T12:46:21;2.30;;;1.70;;
22164;SDS011;11248;52.512;13.520;2022-08-11T12:48:49;2.00;;;1.58;;
22164;SDS011;11248;52.512;13.520;2022-08-11T12:51:35;2.08;;;1.50;;
22164;SDS011;11248;52.512;13.520;2022-08-11T12:54:25;4.63;;;1.63;;
22164;SDS011;11248;52.512;13.520;2022-08-11T12:57:03;4.93;;;1.42;;
22164;SDS011;11248;52.512;13.520;2022-08-11T12:59:50;2.17;;;1.60;;
22164;SDS011;11248;52.512;13.520;2022-08-11T13:02:35;1.77;;;1.45;;
22164;SDS011;11248;52.512;13.520;2022-08-11T13:05:20;4.05;;;1.50;;
22164;SDS011;11248;52.512;13.520;2022-08-11T13:07:47;3.72;;;1.75;;
22164;SDS011;11248;52.512;13.520;2022-08-11T13:10:14;2.47;;;1.50;;
22164;SDS011;11248;52.512;13.520;2022-08-11T13:13:02;1.30;;;1.20;;
22164;SDS011;11248;52.512;13.520;2022-08-11T13:15:28;2.17;;;1.50;;
22164;SDS011;11248;52.512;13.520;2022-08-11T13:17:55;1.40;;;1.30;;
22164;SDS011;11248;52.512;13.520;2022-08-11T13:20:21;2.72;;;1.33;;
22164;SDS011;11248;52.512;13.520;2022-08-11T13:22:49;1.92;;;1.40;;
22164;SDS011;11248;52.512;13.520;2022-08-11T13:25:16;1.30;;;1.20;;
22164;SDS011;11248;52.512;13.520;2022-08-11T13:27:43;2.63;;;1.23;;
22164;SDS011;11248;52.512;13.520;2022-08-11T13:30:10;1.38;;;1.27;;
22164;SDS011;11248;52.512;13.520;2022-08-11T13:32:56;2.72;;;1.23;;
22164;SDS011;11248;52.512;13.520;2022-08-11T13:35:22;3.63;;;1.10;;
22164;SDS011;11248;52.512;13.520;2022-08-11T13:37:48;2.08;;;1.25;;
22164;SDS011;11248;52.512;13.520;2022-08-11T13:40:15;2.25;;;1.10;;
22164;SDS011;11248;52.512;13.520;2022-08-11T13:42:42;1.10;;;1.00;;
22164;SDS011;11248;52.512;13.520;2022-08-11T13:45:09;1.40;;;0.90;;
22164;SDS011;11248;52.512;13.520;2022-08-11T13:47:36;1.33;;;0.98;;
22164;SDS011;11248;52.512;13.520;2022-08-11T13:50:03;2.30;;;1.20;;
22164;SDS011;11248;52.512;13.520;2022-08-11T13:52:30;1.35;;;1.10;;
22164;SDS011;11248;52.512;13.520;2022-08-11T13:54:56;1.75;;;1.27;;
22164;SDS011;11248;52.512;13.520;2022-08-11T13:57:22;0.80;;;0.80;;
22164;SDS011;11248;52.512;13.520;2022-08-11T13:59:52;1.15;;;1.05;;
22164;SDS011;11248;52.512;13.520;2022-08-11T14:02:20;1.20;;;1.10;;
22164;SDS011;11248;52.512;13.520;2022-08-11T14:04:54;1.77;;;1.17;;
22164;SDS011;11248;52.512;13.520;2022-08-11T14:07:21;1.98;;;1.30;;
22164;SDS011;11248;52.512;13.520;2022-08-11T14:09:47;2.05;;;1.30;;
22164;SDS011;11248;52.512;13.520;2022-08-11T14:12:20;5.07;;;1.30;;
22164;SDS011;11248;52.512;13.520;2022-08-11T14:15:09;1.92;;;1.10;;
22164;SDS011;11248;52.512;13.520;2022-08-11T14:17:37;2.88;;;1.00;;
22164;SDS011;11248;52.512;13.520;2022-08-11T14:20:05;1.10;;;1.00;;
22164;SDS011;11248;52.512;13.520;2022-08-11T14:22:32;4.20;;;1.55;;
22164;SDS011;11248;52.512;13.520;2022-08-11T14:25:00;1.33;;;1.23;;
22164;SDS011;11248;52.512;13.520;2022-08-11T14:27:26;2.33;;;1.10;;
22164;SDS011;11248;52.512;13.520;2022-08-11T14:29:54;2.70;;;0.90;;
22164;SDS011;11248;52.512;13.520;2022-08-11T14:32:21;1.52;;;1.00;;
22164;SDS011;11248;52.512;13.520;2022-08-11T14:34:47;1.17;;;0.90;;
22164;SDS011;11248;52.512;13.520;2022-08-11T14:37:14;1.08;;;0.98;;
22164;SDS011;11248;52.512;13.520;2022-08-11T14:39:44;2.80;;;1.23;;
22164;SDS011;11248;52.512;13.520;2022-08-11T14:42:12;2.00;;;0.88;;
22164;SDS011;11248;52.512;13.520;2022-08-11T14:44:58;1.13;;;0.85;;
22164;SDS011;11248;52.512;13.520;2022-08-11T14:47:52;2.63;;;1.30;;
22164;SDS011;11248;52.512;13.520;2022-08-11T14:50:23;0.90;;;0.90;;
22164;SDS011;11248;52.512;13.520;2022-08-11T14:55:16;1.15;;;1.00;;
22164;SDS011;11248;52.512;13.520;2022-08-11T14:58:13;1.52;;;1.10;;
22164;SDS011;11248;52.512;13.520;2022-08-11T15:00:40;1.20;;;1.10;;
22164;SDS011;11248;52.512;13.520;2022-08-11T15:03:07;1.27;;;1.10;;
22164;SDS011;11248;52.512;13.520;2022-08-11T15:05:38;1.30;;;0.90;;
22164;SDS011;11248;52.512;13.520;2022-08-11T15:08:06;2.35;;;0.90;;
22164;SDS011;11248;52.512;13.520;2022-08-11T15:10:32;1.50;;;1.10;;
22164;SDS011;11248;52.512;13.520;2022-08-11T15:12:59;1.55;;;1.10;;
22164;SDS011;11248;52.512;13.520;2022-08-11T15:15:25;1.83;;;1.10;;
22164;SDS011;11248;52.512;13.520;2022-08-11T15:18:11;2.05;;;1.30;;
22164;SDS011;11248;52.512;13.520;2022-08-11T15:20:39;1.08;;;1.00;;
22164;SDS011;11248;52.512;13.520;2022-08-11T15:23:31;2.67;;;1.02;;
22164;SDS011;11248;52.512;13.520;2022-08-11T15:26:25;2.17;;;0.93;;
22164;SDS011;11248;52.512;13.520;2022-08-11T15:29:12;0.80;;;0.73;;
22164;SDS011;11248;52.512;13.520;2022-08-11T15:31:57;0.82;;;0.82;;
22164;SDS011;11248;52.512;13.520;2022-08-11T15:34:43;1.08;;;0.98;;
22164;SDS011;11248;52.512;13.520;2022-08-11T15:37:29;1.15;;;0.80;;
22164;SDS011;11248;52.512;13.520;2022-08-11T15:42:51;1.15;;;0.90;;
22164;SDS011;11248;52.512;13.520;2022-08-11T15:45:38;1.65;;;0.88;;
22164;SDS011;11248;52.512;13.520;2022-08-11T15:50:47;0.80;;;0.80;;
22164;SDS011;11248;52.512;13.520;2022-08-11T15:53:20;0.70;;;0.70;;
22164;SDS011;11248;52.512;13.520;2022-08-11T15:55:48;0.80;;;0.80;;
22164;SDS011;11248;52.512;13.520;2022-08-11T15:58:15;1.60;;;1.30;;
22164;SDS011;11248;52.512;13.520;2022-08-11T16:01:03;0.98;;;0.90;;
22164;SDS011;11248;52.512;13.520;2022-08-11T16:03:53;1.65;;;0.90;;
22164;SDS011;11248;52.512;13.520;2022-08-11T16:06:36;1.13;;;0.95;;
22164;SDS011;11248;52.512;13.520;2022-08-11T16:09:04;0.95;;;0.93;;
22164;SDS011;11248;52.512;13.520;2022-08-11T16:11:33;3.10;;;1.10;;
22164;SDS011;11248;52.512;13.520;2022-08-11T16:14:01;1.38;;;0.70;;
22164;SDS011;11248;52.512;13.520;2022-08-11T16:16:46;0.88;;;0.80;;
22164;SDS011;11248;52.512;13.520;2022-08-11T16:19:13;1.48;;;0.82;;
22164;SDS011;11248;52.512;13.520;2022-08-11T16:21:40;1.10;;;1.00;;
22164;SDS011;11248;52.512;13.520;2022-08-11T16:24:08;0.70;;;0.70;;
22164;SDS011;11248;52.512;13.520;2022-08-11T16:26:35;0.90;;;0.80;;
22164;SDS011;11248;52.512;13.520;2022-08-11T16:29:03;0.95;;;0.88;;
22164;SDS011;11248;52.512;13.520;2022-08-11T16:31:30;1.17;;;0.93;;
22164;SDS011;11248;52.512;13.520;2022-08-11T16:33:57;1.35;;;1.00;;
22164;SDS011;11248;52.512;13.520;2022-08-11T16:36:23;3.88;;;1.20;;
22164;SDS011;11248;52.512;13.520;2022-08-11T16:39:09;1.15;;;0.90;;
22164;SDS011;11248;52.512;13.520;2022-08-11T16:41:37;1.08;;;0.90;;
22164;SDS011;11248;52.512;13.520;2022-08-11T16:44:24;1.20;;;0.90;;
22164;SDS011;11248;52.512;13.520;2022-08-11T16:47:14;1.77;;;0.90;;
22164;SDS011;11248;52.512;13.520;2022-08-11T16:49:44;0.98;;;0.90;;
22164;SDS011;11248;52.512;13.520;2022-08-11T16:52:11;0.90;;;0.90;;
22164;SDS011;11248;52.512;13.520;2022-08-11T16:54:38;1.20;;;0.80;;
22164;SDS011;11248;52.512;13.520;2022-08-11T16:57:10;2.38;;;1.20;;
22164;SDS011;11248;52.512;13.520;2022-08-11T16:59:57;1.58;;;1.10;;
22164;SDS011;11248;52.512;13.520;2022-08-11T17:02:25;1.17;;;0.90;;
22164;SDS011;11248;52.512;13.520;2022-08-11T17:05:17;1.05;;;0.90;;
22164;SDS011;11248;52.512;13.520;2022-08-11T17:08:04;0.80;;;0.80;;
22164;SDS011;11248;52.512;13.520;2022-08-11T17:10:56;0.80;;;0.80;;
22164;SDS011;11248;52.512;13.520;2022-08-11T17:13:51;1.15;;;0.75;;
22164;SDS011;11248;52.512;13.520;2022-08-11T17:16:20;1.13;;;0.80;;
22164;SDS011;11248;52.512;13.520;2022-08-11T17:21:19;0.75;;;0.65;;
22164;SDS011;11248;52.512;13.520;2022-08-11T17:23:47;1.17;;;0.90;;
22164;SDS011;11248;52.512;13.520;2022-08-11T17:26:22;1.13;;;0.82;;
22164;SDS011;11248;52.512;13.520;2022-08-11T17:28:50;1.20;;;1.10;;
22164;SDS011;11248;52.512;13.520;2022-08-11T17:31:18;2.60;;;1.05;;
22164;SDS011;11248;52.512;13.520;2022-08-11T17:34:05;1.92;;;1.05;;
22164;SDS011;11248;52.512;13.520;2022-08-11T17:36:51;0.90;;;0.90;;
22164;SDS011;11248;52.512;13.520;2022-08-11T17:39:17;1.67;;;0.90;;
22164;SDS011;11248;52.512;13.520;2022-08-11T17:41:44;1.13;;;1.00;;
22164;SDS011;11248;52.512;13.520;2022-08-11T17:44:29;0.98;;;0.90;;